메인 페이지
METAR-TAF:

METAR-TAF

공항 :

하이데라바드, 인도

위도: 17-27N, 경도: 078-28E, 고도: 530m

현재 날씨관측

예보는 7 시간 15분 전, 14:30시(UTC)에 발표되었습니다.
남남동3kt
온도 38°C
습도 27%
기압 1006 hPa
시정: 6000m
고도 2000ft 상공 구름 조금
고도 10000ft 상공 구름 보통

METAR: VOHY 281430Z 15003KT 6000 FEW020 SCT100 38/16 Q1006 NOSIG

시각: 03:15 (21:45 UTC)

예보

예보는 15 시간 45분 전, 06:00시(UTC)에 발표되었습니다.
예보 대상 시간: 28일 09시부터 28일 18시까지 (UTC)
서북서10kt
시정: 6000m
고도 1500ft 상공 구름 조금
고도 2500ft 상공 구름 보통
일시적
28일 09시부터 28일 16시까지 (UTC)
고도 3000ft 상공 구름 조금, 적란운.

TAF: VOHY 280600Z 2809/2818 30010KT 6000 FEW015 SCT025 TEMPO 2809/2816 FEW030CB

4,000개 이상의 공항 관측 자료 및 예보 (METAR 및 TAF 보고).

지도상에서 검색 가능한 기상관측소가 노란 점과 빨간 점으로 표시되어 있습니다.

기상관측소 명을 보려면 표시 위로 마우스를 이동하세요.

날씨 관측과 예보를 보려면 클릭하세요.

지도 변경 : 확대하려면 엑스 표시가 있는 녹색 버튼, 축소하려면 빼기 표시가 있는 녹색 버튼, 다음 페이지의 지도를 보려면 녹색 화살표를 클릭하세요.


METAR-TAF: